Las Vegas, Nevada
Traffic Map
Current Weather Conditions
Las Vegas, Nevada
Scattered Clouds
Scattered Clouds
87°
Feels Like: 87°
Wind Chill: 87° Ceiling: Unl
Heat Index: 87° Visibility: 10mi
Dew Point: 24° Wind: 5mph
Humidity: 10% Direction: 170° (S)
Pressure: 29.95in Gusts: 0mph
Raw Report DataKLAS 301556Z 17004KT 10SM SCT250 31/M04 A2995 RMK AO2 SLP113 T03061044
Traffic Incident Summary
Active as of:
Severity:
Category:
InformationThere was an issue retrieving the traffic information for this location. Please try a different location or try again shortly.
Advertisements
Track Severe Weather on mobile